createdAt,value
2023-05-06T00:00:56.383Z,67.92
2023-05-06T00:03:22.786Z,67.62
2023-05-06T00:05:49.150Z,69.19
2023-05-06T00:08:15.560Z,69.06
2023-05-06T00:10:41.925Z,67.24
2023-05-06T00:13:08.336Z,67.18
2023-05-06T00:15:34.695Z,67.44
2023-05-06T00:18:01.133Z,66.81
2023-05-06T00:20:27.494Z,66.74
2023-05-06T00:22:53.781Z,66.71
2023-05-06T00:25:20.088Z,67.17
2023-05-06T00:27:46.381Z,64.98
2023-05-06T00:30:18.148Z,65.73
2023-05-06T00:32:44.490Z,66.31
2023-05-06T00:35:10.972Z,66.01
2023-05-06T00:37:37.404Z,66.99
2023-05-06T00:40:03.717Z,66.51
2023-05-06T00:42:29.991Z,66.42
2023-05-06T00:44:56.289Z,67.67
2023-05-06T00:47:22.614Z,66.71
2023-05-06T00:49:48.915Z,67.66
2023-05-06T00:52:15.210Z,67.75
2023-05-06T00:54:41.551Z,68.00
2023-05-06T00:57:07.847Z,67.05
2023-05-06T00:59:34.162Z,67.06
2023-05-06T01:02:00.480Z,67.79
2023-05-06T01:04:26.781Z,67.60
2023-05-06T01:06:53.066Z,67.17
2023-05-06T01:09:19.376Z,66.87
2023-05-06T01:11:45.663Z,67.77
2023-05-06T01:14:11.942Z,66.97
2023-05-06T01:16:38.237Z,67.27
2023-05-06T01:19:04.554Z,67.62
2023-05-06T01:21:30.840Z,67.96
2023-05-06T01:23:57.148Z,69.11
2023-05-06T01:26:23.445Z,70.81
2023-05-06T01:28:49.735Z,71.22
2023-05-06T01:31:20.918Z,71.28
2023-05-06T01:33:47.260Z,72.04
2023-05-06T01:36:13.558Z,73.55
2023-05-06T01:38:39.874Z,73.98
2023-05-06T01:41:06.159Z,72.60
2023-05-06T01:43:32.461Z,74.12
2023-05-06T01:45:58.794Z,74.28
2023-05-06T01:48:25.098Z,74.27
2023-05-06T01:50:51.371Z,73.84
2023-05-06T01:53:17.687Z,74.11
2023-05-06T01:55:44.023Z,74.09
2023-05-06T01:58:10.318Z,73.91
2023-05-06T02:00:36.681Z,73.39
2023-05-06T02:03:03.019Z,73.95
2023-05-06T02:05:29.361Z,73.53
2023-05-06T02:07:55.689Z,73.87
2023-05-06T02:10:21.989Z,73.19
2023-05-06T02:12:48.323Z,73.84
2023-05-06T02:15:14.642Z,73.96
2023-05-06T02:17:41.005Z,73.38
2023-05-06T02:20:07.291Z,73.75
2023-05-06T02:22:33.580Z,73.01
2023-05-06T02:24:59.910Z,73.96
2023-05-06T02:27:26.200Z,74.15
2023-05-06T02:29:52.545Z,73.87
2023-05-06T02:32:18.853Z,73.55
2023-05-06T02:34:45.170Z,74.49
2023-05-06T02:37:11.490Z,73.44
2023-05-06T02:39:37.780Z,73.48
2023-05-06T02:42:04.066Z,74.35
2023-05-06T02:44:30.367Z,73.51
2023-05-06T02:46:56.694Z,73.80
2023-05-06T02:49:22.992Z,73.73
2023-05-06T02:51:49.320Z,73.98
2023-05-06T02:54:15.621Z,74.70
2023-05-06T02:56:41.921Z,74.67
2023-05-06T02:59:08.231Z,74.41
2023-05-06T03:01:34.590Z,74.50
2023-05-06T03:04:00.963Z,73.67
2023-05-06T03:06:27.337Z,74.75
2023-05-06T03:08:53.629Z,74.18
2023-05-06T03:11:19.916Z,74.01
2023-05-06T03:13:46.232Z,74.87
2023-05-06T03:16:12.532Z,74.12
2023-05-06T03:18:38.840Z,74.09
2023-05-06T03:21:05.197Z,74.19
2023-05-06T03:23:31.662Z,75.62
2023-05-06T03:25:57.982Z,75.69
2023-05-06T03:28:24.293Z,76.61
2023-05-06T03:30:50.592Z,76.04
2023-05-06T03:33:16.925Z,75.98
2023-05-06T03:35:43.252Z,76.67
2023-05-06T03:38:09.637Z,76.06
2023-05-06T03:40:35.996Z,76.06
2023-05-06T03:43:02.350Z,75.51
2023-05-06T03:45:28.653Z,75.98
2023-05-06T03:47:55.009Z,76.91
2023-05-06T03:50:21.340Z,75.54
2023-05-06T03:52:47.926Z,74.73
2023-05-06T03:55:14.261Z,74.70
2023-05-06T03:57:40.584Z,73.99
2023-05-06T04:00:06.889Z,75.10
2023-05-06T04:02:33.240Z,74.58
2023-05-06T04:04:59.675Z,74.25
2023-05-06T04:07:25.979Z,74.97
2023-05-06T04:09:52.287Z,74.94
2023-05-06T04:12:18.647Z,74.86
2023-05-06T04:14:44.944Z,76.07
2023-05-06T04:17:11.250Z,75.94
2023-05-06T04:19:37.586Z,75.00
2023-05-06T04:22:03.906Z,75.30
2023-05-06T04:24:30.207Z,75.53
2023-05-06T04:26:56.538Z,75.97
2023-05-06T04:29:22.854Z,75.72
2023-05-06T04:31:49.182Z,74.66
2023-05-06T04:34:15.529Z,76.13
2023-05-06T04:36:41.836Z,75.50
2023-05-06T04:39:08.145Z,76.13
2023-05-06T04:41:34.462Z,75.80
2023-05-06T04:44:00.772Z,76.02
2023-05-06T04:46:27.068Z,75.98
2023-05-06T04:48:53.501Z,76.26
2023-05-06T04:51:19.809Z,76.29
2023-05-06T04:53:46.113Z,76.36
2023-05-06T04:56:12.436Z,76.51
2023-05-06T04:58:38.729Z,75.27
2023-05-06T05:01:05.130Z,75.64
2023-05-06T05:03:31.594Z,76.29
2023-05-06T05:05:58.028Z,76.35
2023-05-06T05:08:24.426Z,75.77
2023-05-06T05:10:50.772Z,76.71
2023-05-06T05:13:17.171Z,76.00
2023-05-06T05:15:43.569Z,75.94
2023-05-06T05:18:09.969Z,75.91
2023-05-06T05:20:36.287Z,75.13
2023-05-06T05:23:02.584Z,73.43
2023-05-06T05:25:31.930Z,72.83
2023-05-06T05:27:58.239Z,74.07
2023-05-06T05:30:24.575Z,74.60
2023-05-06T05:32:51.048Z,74.83
2023-05-06T05:35:17.439Z,74.06
2023-05-06T05:37:43.743Z,75.15
2023-05-06T05:40:10.059Z,74.27
2023-05-06T05:42:36.399Z,74.99
2023-05-06T05:45:02.744Z,75.26
2023-05-06T05:47:29.125Z,74.41
2023-05-06T05:49:55.493Z,71.97
2023-05-06T05:52:21.808Z,70.39
2023-05-06T05:54:48.131Z,69.90
2023-05-06T05:57:14.427Z,69.55
2023-05-06T05:59:40.724Z,72.11
2023-05-06T06:02:07.067Z,70.54
2023-05-06T06:04:33.395Z,72.42
2023-05-06T06:06:59.734Z,73.69
2023-05-06T06:09:26.067Z,72.05
2023-05-06T06:11:52.375Z,72.23
2023-05-06T06:14:18.675Z,72.27
2023-05-06T06:16:45.025Z,72.34
2023-05-06T06:19:11.352Z,71.67
2023-05-06T06:21:37.663Z,71.86
2023-05-06T06:24:04.024Z,71.01
2023-05-06T06:26:31.043Z,70.22
2023-05-06T06:28:57.360Z,71.60
2023-05-06T06:31:23.748Z,70.18
2023-05-06T06:33:50.069Z,71.63
2023-05-06T06:36:16.363Z,70.81
2023-05-06T06:38:42.688Z,71.59
2023-05-06T06:41:08.981Z,71.43
2023-05-06T06:43:35.302Z,72.85
2023-05-06T06:46:01.730Z,70.97
2023-05-06T06:48:28.067Z,72.77
2023-05-06T06:50:54.843Z,71.87
2023-05-06T06:53:21.366Z,71.26
2023-05-06T06:55:47.760Z,71.37
2023-05-06T06:58:14.135Z,73.03
2023-05-06T07:00:40.488Z,70.98
2023-05-06T07:03:06.914Z,71.30
2023-05-06T07:05:33.249Z,72.18
2023-05-06T07:07:59.568Z,70.73
2023-05-06T07:10:25.970Z,70.48
2023-05-06T07:12:52.385Z,72.34
2023-05-06T07:15:18.739Z,72.26
2023-05-06T07:17:45.130Z,70.72
2023-05-06T07:20:11.475Z,71.05
2023-05-06T07:22:37.794Z,71.18
2023-05-06T07:25:04.111Z,71.94
2023-05-06T07:27:30.421Z,70.90
2023-05-06T07:29:56.788Z,72.13
2023-05-06T07:32:23.127Z,72.82
2023-05-06T07:34:49.429Z,71.53
2023-05-06T07:37:15.751Z,72.62
2023-05-06T07:39:42.062Z,71.85
2023-05-06T07:42:08.357Z,69.81
2023-05-06T07:44:34.680Z,71.69
2023-05-06T07:47:01.094Z,70.69
2023-05-06T07:49:27.485Z,70.76
2023-05-06T07:51:53.823Z,71.12
2023-05-06T07:54:20.150Z,71.37
2023-05-06T07:56:46.436Z,69.05
2023-05-06T07:59:12.779Z,70.34
2023-05-06T08:01:39.086Z,68.46
2023-05-06T08:04:05.471Z,68.59
2023-05-06T08:06:31.834Z,66.97
2023-05-06T08:08:58.144Z,67.01
2023-05-06T08:11:24.459Z,66.92
2023-05-06T08:13:50.806Z,63.52
2023-05-06T08:16:17.185Z,65.57
2023-05-06T08:18:43.570Z,64.83
2023-05-06T08:21:09.901Z,66.78
2023-05-06T08:23:36.216Z,65.37
2023-05-06T08:26:02.527Z,65.59
2023-05-06T08:28:28.842Z,66.70
2023-05-06T08:30:55.137Z,65.57
2023-05-06T08:33:21.434Z,66.19
2023-05-06T08:35:48.229Z,62.57
2023-05-06T08:38:14.532Z,62.29
2023-05-06T08:40:40.832Z,64.57
2023-05-06T08:43:07.156Z,61.47
2023-05-06T08:45:33.511Z,61.49
2023-05-06T08:47:59.878Z,61.83
2023-05-06T08:50:26.192Z,61.62
2023-05-06T08:52:52.492Z,60.90
2023-05-06T08:55:18.804Z,61.62
2023-05-06T08:57:45.135Z,60.55
2023-05-06T09:00:11.437Z,60.28
2023-05-06T09:02:38.775Z,60.96
2023-05-06T09:05:06.134Z,61.14
2023-05-06T09:07:32.450Z,60.44
2023-05-06T09:09:58.768Z,60.01
2023-05-06T09:12:25.096Z,58.23
2023-05-06T09:14:51.380Z,58.51
2023-05-06T09:17:17.843Z,58.54
2023-05-06T09:19:44.165Z,57.23
2023-05-06T09:22:10.464Z,57.34
2023-05-06T09:24:36.758Z,56.46
2023-05-06T09:27:03.086Z,56.03
2023-05-06T09:29:29.392Z,56.69
2023-05-06T09:32:00.959Z,56.88
2023-05-06T09:34:27.301Z,55.14
2023-05-06T09:36:53.615Z,55.49
2023-05-06T09:39:20.233Z,56.57
2023-05-06T09:41:46.644Z,57.32
2023-05-06T09:44:13.140Z,56.26
2023-05-06T09:46:39.578Z,56.43
2023-05-06T09:49:06.026Z,55.72
2023-05-06T09:51:32.327Z,56.31
2023-05-06T09:53:58.686Z,54.02
2023-05-06T09:56:26.445Z,53.20
2023-05-06T09:58:53.252Z,54.25
2023-05-06T10:01:32.683Z,56.21
2023-05-06T10:04:04.123Z,51.88
2023-05-06T10:06:31.420Z,52.15
2023-05-06T10:08:59.167Z,52.55
2023-05-06T10:11:25.528Z,52.03
2023-05-06T10:13:51.840Z,50.13
2023-05-06T10:16:18.254Z,51.93
2023-05-06T10:18:44.586Z,52.08
2023-05-06T10:21:10.890Z,50.41
2023-05-06T10:23:37.194Z,48.80
2023-05-06T10:26:03.521Z,49.26
2023-05-06T10:28:31.260Z,51.93
2023-05-06T10:30:58.086Z,50.41
2023-05-06T10:33:24.407Z,50.20
2023-05-06T10:35:50.742Z,49.86
2023-05-06T10:38:17.051Z,50.04
2023-05-06T10:40:43.371Z,51.15
2023-05-06T10:43:09.717Z,50.97
2023-05-06T10:45:36.035Z,49.78
2023-05-06T10:48:02.452Z,47.70
2023-05-06T10:50:28.905Z,47.42
2023-05-06T10:52:55.222Z,45.66
2023-05-06T10:55:21.563Z,46.01
2023-05-06T10:57:47.869Z,48.79
2023-05-06T11:00:14.174Z,48.80
2023-05-06T11:02:40.602Z,45.81
2023-05-06T11:05:06.952Z,43.85
2023-05-06T11:07:33.271Z,46.23
2023-05-06T11:09:59.611Z,46.17
2023-05-06T11:12:25.933Z,45.22
2023-05-06T11:14:52.257Z,45.73
2023-05-06T11:17:18.576Z,47.74
2023-05-06T11:19:44.882Z,47.04
2023-05-06T11:22:11.196Z,49.70
2023-05-06T11:24:37.527Z,48.49
2023-05-06T11:27:03.820Z,50.08
2023-05-06T11:29:30.126Z,49.08
2023-05-06T11:31:56.466Z,50.52
2023-05-06T11:34:22.800Z,49.99
2023-05-06T11:36:49.126Z,47.50
2023-05-06T11:39:15.463Z,49.98
2023-05-06T11:41:41.768Z,48.40
2023-05-06T11:44:10.247Z,49.36
2023-05-06T11:46:37.768Z,47.33
2023-05-06T11:49:04.110Z,49.37
2023-05-06T11:51:30.395Z,46.42
2023-05-06T11:53:56.760Z,44.78
2023-05-06T11:56:23.062Z,46.77
2023-05-06T11:58:49.358Z,47.67
2023-05-06T12:01:15.674Z,44.12
2023-05-06T12:03:42.077Z,46.37
2023-05-06T12:06:08.455Z,44.53
2023-05-06T12:08:34.830Z,44.11
2023-05-06T12:11:01.182Z,44.39
2023-05-06T12:13:27.492Z,46.98
2023-05-06T12:15:53.837Z,46.41
2023-05-06T12:18:20.163Z,47.03
2023-05-06T12:20:46.458Z,47.05
2023-05-06T12:23:12.788Z,49.39
2023-05-06T12:25:39.080Z,48.03
2023-05-06T12:28:05.392Z,48.74
2023-05-06T12:30:31.725Z,46.88
2023-05-06T12:32:58.071Z,47.45
2023-05-06T12:35:24.443Z,46.85
2023-05-06T12:37:50.766Z,45.23
2023-05-06T12:40:17.066Z,47.19
2023-05-06T12:42:43.391Z,46.64
2023-05-06T12:45:09.707Z,46.48
2023-05-06T12:47:36.116Z,46.93
2023-05-06T12:50:02.455Z,49.22
2023-05-06T12:52:28.833Z,46.72
2023-05-06T12:54:55.143Z,45.76
2023-05-06T12:57:21.445Z,46.20
2023-05-06T12:59:47.823Z,45.24
2023-05-06T13:02:14.173Z,46.32
2023-05-06T13:04:40.504Z,48.52
2023-05-06T13:07:06.828Z,47.14
2023-05-06T13:09:33.138Z,47.18
2023-05-06T13:11:59.440Z,47.98
2023-05-06T13:14:25.759Z,47.22
2023-05-06T13:16:52.086Z,46.70
2023-05-06T13:19:31.471Z,47.98
2023-05-06T13:21:59.018Z,48.12
2023-05-06T13:24:25.340Z,47.38
2023-05-06T13:26:51.649Z,48.53
2023-05-06T13:29:17.980Z,47.25
2023-05-06T13:31:44.280Z,47.13
2023-05-06T13:34:10.578Z,47.46
2023-05-06T13:36:36.902Z,47.33
2023-05-06T13:39:03.208Z,47.80
2023-05-06T13:41:29.534Z,48.40
2023-05-06T13:43:55.866Z,47.20
2023-05-06T13:46:22.242Z,48.47
2023-05-06T13:48:48.635Z,46.66
2023-05-06T13:51:14.978Z,46.76
2023-05-06T13:53:41.296Z,47.43
2023-05-06T13:56:07.780Z,48.00
2023-05-06T13:58:34.106Z,47.55
2023-05-06T14:01:00.395Z,48.11
2023-05-06T14:03:26.692Z,49.42
2023-05-06T14:05:53.026Z,52.02
2023-05-06T14:08:19.319Z,50.86
2023-05-06T14:10:45.606Z,50.41
2023-05-06T14:13:12.011Z,48.98
2023-05-06T14:15:38.334Z,48.90
2023-05-06T14:18:04.653Z,49.36
2023-05-06T14:20:30.992Z,50.00
2023-05-06T14:22:57.279Z,49.55
2023-05-06T14:25:23.685Z,50.41
2023-05-06T14:27:50.128Z,50.55
2023-05-06T14:30:16.424Z,50.16
2023-05-06T14:32:42.776Z,49.63
2023-05-06T14:35:09.303Z,49.93
2023-05-06T14:37:35.847Z,49.98
2023-05-06T14:40:02.310Z,50.74
2023-05-06T14:42:28.635Z,51.72
2023-05-06T14:44:54.932Z,54.80
2023-05-06T14:47:21.236Z,54.28
2023-05-06T14:49:47.569Z,54.29
2023-05-06T14:52:13.849Z,54.09
2023-05-06T14:54:40.138Z,55.32
2023-05-06T14:57:06.465Z,55.70
2023-05-06T14:59:32.755Z,56.87
2023-05-06T15:01:59.039Z,59.10
2023-05-06T15:04:25.349Z,61.26
2023-05-06T15:06:51.637Z,62.85
2023-05-06T15:09:17.925Z,60.50
2023-05-06T15:11:44.246Z,59.78
2023-05-06T15:14:10.519Z,57.61
2023-05-06T15:16:36.852Z,53.30
2023-05-06T15:19:03.158Z,53.86
2023-05-06T15:21:29.442Z,54.62
2023-05-06T15:23:55.727Z,53.56
2023-05-06T15:26:22.037Z,54.40
2023-05-06T15:28:48.421Z,51.34
2023-05-06T15:31:14.751Z,54.32
2023-05-06T15:33:41.126Z,55.30
2023-05-06T15:36:07.443Z,53.61
2023-05-06T15:38:33.742Z,51.17
2023-05-06T15:41:00.053Z,52.67
2023-05-06T15:43:26.488Z,54.80
2023-05-06T15:46:02.360Z,55.54
2023-05-06T15:48:28.670Z,56.59
2023-05-06T15:50:54.982Z,57.91
2023-05-06T15:53:21.308Z,56.92
2023-05-06T15:55:54.595Z,55.38
2023-05-06T15:58:23.382Z,55.19
2023-05-06T16:00:49.668Z,55.05
2023-05-06T16:03:16.168Z,56.30
2023-05-06T16:05:42.558Z,56.52
2023-05-06T16:08:08.850Z,56.47
2023-05-06T16:10:35.135Z,57.08
2023-05-06T16:13:01.516Z,57.97
2023-05-06T16:15:27.837Z,57.14
2023-05-06T16:17:54.146Z,56.34
2023-05-06T16:20:20.506Z,55.31
2023-05-06T16:22:46.800Z,55.05
2023-05-06T16:25:13.091Z,54.04
2023-05-06T16:27:39.482Z,53.14
2023-05-06T16:30:05.773Z,54.25
2023-05-06T16:32:32.137Z,52.83
2023-05-06T16:34:58.535Z,54.14
2023-05-06T16:37:24.844Z,53.40
2023-05-06T16:39:51.126Z,53.27
2023-05-06T16:42:17.448Z,53.31
2023-05-06T16:44:47.445Z,52.71
2023-05-06T16:47:13.920Z,52.95
2023-05-06T16:49:40.330Z,53.94
2023-05-06T16:52:06.883Z,55.69
2023-05-06T16:54:33.281Z,55.18
2023-05-06T16:56:59.622Z,55.20
2023-05-06T16:59:25.915Z,55.71
2023-05-06T17:01:52.226Z,56.11
2023-05-06T17:04:18.581Z,56.15
2023-05-06T17:06:44.897Z,55.50
2023-05-06T17:09:11.210Z,53.12
2023-05-06T17:11:37.523Z,53.78
2023-05-06T17:14:03.838Z,54.00
2023-05-06T17:16:30.177Z,54.74
2023-05-06T17:18:56.607Z,55.49
2023-05-06T17:21:22.902Z,57.75
2023-05-06T17:23:49.202Z,59.06
2023-05-06T17:26:15.534Z,57.91
2023-05-06T17:28:41.854Z,56.92
2023-05-06T17:31:08.232Z,56.77
2023-05-06T17:33:34.582Z,56.30
2023-05-06T17:36:00.892Z,56.11
2023-05-06T17:38:27.185Z,56.95
2023-05-06T17:40:53.512Z,58.18
2023-05-06T17:43:19.814Z,58.94
2023-05-06T17:45:46.184Z,58.71
2023-05-06T17:48:12.720Z,59.38
2023-05-06T17:50:39.052Z,59.85
2023-05-06T17:53:05.362Z,60.54
2023-05-06T17:55:31.691Z,60.07
2023-05-06T17:57:57.995Z,59.46
2023-05-06T18:00:24.294Z,58.99
2023-05-06T18:02:50.660Z,59.45
2023-05-06T18:05:17.043Z,59.04
2023-05-06T18:07:43.353Z,59.03
2023-05-06T18:10:09.683Z,59.56
2023-05-06T18:12:36.073Z,60.31
2023-05-06T18:17:28.897Z,60.27
2023-05-06T18:19:55.265Z,60.26
2023-05-06T18:22:21.572Z,59.17
2023-05-06T18:24:47.938Z,60.08
2023-05-06T18:27:14.271Z,59.64
2023-05-06T18:29:40.579Z,60.38
2023-05-06T18:32:07.002Z,60.68
2023-05-06T18:34:33.427Z,61.01
2023-05-06T18:36:59.722Z,61.50
2023-05-06T18:39:26.049Z,61.05
2023-05-06T18:41:59.716Z,60.81
2023-05-06T18:44:26.036Z,60.93
2023-05-06T18:46:52.334Z,61.13
2023-05-06T18:49:18.637Z,61.47
2023-05-06T18:51:44.948Z,61.12
2023-05-06T18:54:11.653Z,60.65
2023-05-06T18:56:39.152Z,60.97
2023-05-06T18:59:05.475Z,61.80
2023-05-06T19:01:31.821Z,62.12
2023-05-06T19:03:58.178Z,61.41
2023-05-06T19:06:24.568Z,62.78
2023-05-06T19:08:50.887Z,62.73
2023-05-06T19:11:17.191Z,62.19
2023-05-06T19:13:43.546Z,62.67
2023-05-06T19:16:09.888Z,61.52
2023-05-06T19:18:36.233Z,61.57
2023-05-06T19:21:02.560Z,60.85
2023-05-06T19:23:28.864Z,61.47
2023-05-06T19:25:55.178Z,61.20
2023-05-06T19:28:21.546Z,62.04
2023-05-06T19:30:47.889Z,61.15
2023-05-06T19:33:14.227Z,60.32
2023-05-06T19:35:40.631Z,60.43
2023-05-06T19:38:06.922Z,59.84
2023-05-06T19:40:33.210Z,60.21
2023-05-06T19:42:59.522Z,60.57
2023-05-06T19:45:25.819Z,59.66
2023-05-06T19:47:52.172Z,59.95
2023-05-06T19:50:18.568Z,60.03
2023-05-06T19:52:44.867Z,60.00
2023-05-06T19:55:11.416Z,58.53
2023-05-06T19:57:37.924Z,58.69
2023-05-06T20:00:04.227Z,57.89
2023-05-06T20:02:30.572Z,56.90
2023-05-06T20:04:56.961Z,57.37
2023-05-06T20:07:23.446Z,57.58
2023-05-06T20:09:49.767Z,56.56
2023-05-06T20:12:16.073Z,56.26
2023-05-06T20:14:42.393Z,55.29
2023-05-06T20:17:08.682Z,55.71
2023-05-06T20:19:35.013Z,55.74
2023-05-06T20:22:01.314Z,55.58
2023-05-06T20:24:27.615Z,55.78
2023-05-06T20:26:53.953Z,56.58
2023-05-06T20:29:20.260Z,55.47
2023-05-06T20:31:46.586Z,55.37
2023-05-06T20:34:13.023Z,56.14
2023-05-06T20:36:39.321Z,55.28
2023-05-06T20:39:05.621Z,56.40
2023-05-06T20:41:31.955Z,56.44
2023-05-06T20:43:58.254Z,57.36
2023-05-06T20:46:24.732Z,57.54
2023-05-06T20:48:51.148Z,56.72
2023-05-06T20:51:17.446Z,57.70
2023-05-06T20:53:43.734Z,56.58
2023-05-06T20:56:10.053Z,57.31
2023-05-06T20:58:36.353Z,57.36
2023-05-06T21:01:02.672Z,57.67
2023-05-06T21:03:29.094Z,58.18
2023-05-06T21:05:55.483Z,60.45
2023-05-06T21:08:21.779Z,60.30
2023-05-06T21:10:48.108Z,60.88
2023-05-06T21:13:14.461Z,60.52
2023-05-06T21:15:40.787Z,59.65
2023-05-06T21:18:07.161Z,59.08
2023-05-06T21:20:33.522Z,59.06
2023-05-06T21:22:59.815Z,58.27
2023-05-06T21:25:26.125Z,58.22
2023-05-06T21:27:52.409Z,58.76
2023-05-06T21:30:18.709Z,59.31
2023-05-06T21:32:45.076Z,60.56
2023-05-06T21:35:11.587Z,61.12
2023-05-06T21:37:38.099Z,61.38
2023-05-06T21:40:04.476Z,62.11
2023-05-06T21:42:30.853Z,61.78
2023-05-06T21:44:57.142Z,62.15
2023-05-06T21:47:23.520Z,61.68
2023-05-06T21:49:49.860Z,61.75
2023-05-06T21:52:16.150Z,62.34
2023-05-06T21:54:42.450Z,62.41
2023-05-06T21:57:08.748Z,62.81
2023-05-06T21:59:36.288Z,62.98
2023-05-06T22:02:02.667Z,62.76
2023-05-06T22:04:29.008Z,62.58
2023-05-06T22:06:55.339Z,62.68
2023-05-06T22:09:21.648Z,63.27
2023-05-06T22:11:47.948Z,63.49
2023-05-06T22:14:14.235Z,63.01
2023-05-06T22:16:40.655Z,62.97
2023-05-06T22:19:07.032Z,62.79
2023-05-06T22:21:33.335Z,62.92
2023-05-06T22:23:59.656Z,63.28
2023-05-06T22:26:27.513Z,63.60
2023-05-06T22:28:53.822Z,63.44
2023-05-06T22:31:20.162Z,63.29
2023-05-06T22:33:46.468Z,62.93
2023-05-06T22:36:12.769Z,64.25
2023-05-06T22:38:39.091Z,64.16
2023-05-06T22:41:05.389Z,64.55
2023-05-06T22:43:31.710Z,64.75
2023-05-06T22:45:58.129Z,64.11
2023-05-06T22:48:24.444Z,64.85
2023-05-06T22:50:50.740Z,64.47
2023-05-06T22:53:17.053Z,63.59
2023-05-06T22:55:43.363Z,64.22
2023-05-06T22:58:12.783Z,64.54
2023-05-06T23:00:39.113Z,64.97
2023-05-06T23:03:05.464Z,65.16
2023-05-06T23:05:31.836Z,65.98
2023-05-06T23:07:58.159Z,65.30
2023-05-06T23:10:24.467Z,64.92
2023-05-06T23:12:50.808Z,64.94
2023-05-06T23:15:17.184Z,65.49
2023-05-06T23:17:43.539Z,64.41
2023-05-06T23:20:09.889Z,64.74
2023-05-06T23:22:36.246Z,65.30
2023-05-06T23:25:02.591Z,65.12
2023-05-06T23:27:28.898Z,65.15
2023-05-06T23:29:55.226Z,64.50
2023-05-06T23:32:21.516Z,64.75
2023-05-06T23:34:47.809Z,65.16
2023-05-06T23:37:14.121Z,65.23
2023-05-06T23:39:40.433Z,65.52
2023-05-06T23:42:06.753Z,65.20
2023-05-06T23:44:33.093Z,65.65
2023-05-06T23:46:59.391Z,64.98
2023-05-06T23:49:25.684Z,64.39
2023-05-06T23:51:52.053Z,65.06
2023-05-06T23:54:18.349Z,65.02
2023-05-06T23:56:44.653Z,65.67
2023-05-06T23:59:13.265Z,65.49
